createdAt,value
2019-02-02T00:00:30.243Z,100.00
2019-02-02T00:02:56.175Z,100.00
2019-02-02T00:05:22.110Z,100.00
2019-02-02T00:07:47.938Z,100.00
2019-02-02T00:10:16.604Z,100.00
2019-02-02T00:12:42.406Z,100.00
2019-02-02T00:15:12.188Z,100.00
2019-02-02T00:17:38.125Z,100.00
2019-02-02T00:20:07.721Z,100.00
2019-02-02T00:22:55.440Z,100.00
2019-02-02T00:25:21.283Z,100.00
2019-02-02T00:27:47.306Z,100.00
2019-02-02T00:30:15.678Z,100.00
2019-02-02T00:32:41.535Z,100.00
2019-02-02T00:35:07.900Z,100.00
2019-02-02T00:37:33.992Z,100.00
2019-02-02T00:39:59.856Z,100.00
2019-02-02T00:42:25.936Z,100.00
2019-02-02T00:44:51.845Z,100.00
2019-02-02T00:47:17.752Z,100.00
2019-02-02T00:49:43.611Z,100.00
2019-02-02T00:52:09.441Z,100.00
2019-02-02T00:54:35.276Z,100.00
2019-02-02T00:57:01.218Z,100.00
2019-02-02T00:59:27.317Z,100.00
2019-02-02T01:01:53.173Z,100.00
2019-02-02T01:04:19.004Z,100.00
2019-02-02T01:06:44.815Z,100.00
2019-02-02T01:09:13.250Z,100.00
2019-02-02T01:11:39.466Z,100.00
2019-02-02T01:14:05.491Z,100.00
2019-02-02T01:16:31.612Z,100.00
2019-02-02T01:18:57.708Z,100.00
2019-02-02T01:21:23.700Z,100.00
2019-02-02T01:23:49.851Z,100.00
2019-02-02T01:26:15.677Z,100.00
2019-02-02T01:28:44.780Z,100.00
2019-02-02T01:31:11.497Z,100.00
2019-02-02T01:33:37.337Z,100.00
2019-02-02T01:36:03.135Z,100.00
2019-02-02T01:38:28.961Z,100.00
2019-02-02T01:40:54.923Z,100.00
2019-02-02T01:43:21.195Z,100.00
2019-02-02T01:45:50.106Z,100.00
2019-02-02T01:48:16.226Z,100.00
2019-02-02T01:50:44.847Z,100.00
2019-02-02T01:53:10.913Z,100.00
2019-02-02T01:55:39.972Z,100.00
2019-02-02T01:58:16.003Z,100.00
2019-02-02T02:00:33.766Z,100.00
2019-02-02T02:02:59.926Z,100.00
2019-02-02T02:05:29.101Z,100.00
2019-02-02T02:07:55.157Z,100.00
2019-02-02T02:10:21.374Z,100.00
2019-02-02T02:12:47.356Z,100.00
2019-02-02T02:15:15.285Z,100.00
2019-02-02T02:17:41.295Z,100.00
2019-02-02T02:20:09.557Z,100.00
2019-02-02T02:22:41.294Z,100.00
2019-02-02T02:25:07.560Z,100.00
2019-02-02T02:27:33.377Z,100.00
2019-02-02T02:29:59.243Z,100.00
2019-02-02T02:32:25.316Z,100.00
2019-02-02T02:34:51.549Z,100.00
2019-02-02T02:37:20.634Z,100.00
2019-02-02T02:39:46.716Z,100.00
2019-02-02T02:42:15.508Z,100.00
2019-02-02T02:44:41.333Z,99.78
2019-02-02T02:47:07.172Z,99.75
2019-02-02T02:49:33.279Z,99.63
2019-02-02T02:51:59.414Z,99.38
2019-02-02T02:54:25.260Z,99.19
2019-02-02T02:56:51.114Z,99.11
2019-02-02T02:59:20.010Z,98.98
2019-02-02T03:01:46.103Z,98.84
2019-02-02T03:04:15.243Z,98.78
2019-02-02T03:06:41.381Z,98.90
2019-02-02T03:09:09.983Z,99.23
2019-02-02T03:11:35.788Z,99.35
2019-02-02T03:14:04.419Z,99.11
2019-02-02T03:16:30.246Z,99.37
2019-02-02T03:21:48.474Z,100.00
2019-02-02T03:24:14.277Z,100.00
2019-02-02T03:26:40.142Z,100.00
2019-02-02T03:29:06.013Z,100.00
2019-02-02T03:31:31.819Z,100.00
2019-02-02T03:33:57.630Z,100.00
2019-02-02T03:36:23.725Z,100.00
2019-02-02T03:38:49.557Z,100.00
2019-02-02T03:41:15.674Z,100.00
2019-02-02T03:43:41.932Z,100.00
2019-02-02T03:46:08.056Z,100.00
2019-02-02T03:48:34.193Z,100.00
2019-02-02T03:51:00.004Z,100.00
2019-02-02T03:53:25.896Z,100.00
2019-02-02T03:55:52.063Z,99.52
2019-02-02T03:58:18.157Z,99.46
2019-02-02T04:00:43.987Z,99.71
2019-02-02T04:03:10.164Z,99.55
2019-02-02T04:05:36.566Z,99.50
2019-02-02T04:08:02.387Z,99.99
2019-02-02T04:10:28.203Z,100.00
2019-02-02T04:12:54.039Z,100.00
2019-02-02T04:15:20.482Z,99.50
2019-02-02T04:17:46.287Z,99.85
2019-02-02T04:20:14.419Z,100.00
2019-02-02T04:22:40.754Z,100.00
2019-02-02T04:25:07.382Z,100.00
2019-02-02T04:27:36.336Z,100.00
2019-02-02T04:30:06.237Z,100.00
2019-02-02T04:32:32.171Z,100.00
2019-02-02T04:34:58.125Z,100.00
2019-02-02T04:37:24.199Z,100.00
2019-02-02T04:39:50.041Z,100.00
2019-02-02T04:42:15.878Z,100.00
2019-02-02T04:44:41.741Z,100.00
2019-02-02T04:47:07.567Z,100.00
2019-02-02T04:49:36.565Z,100.00
2019-02-02T04:52:02.388Z,100.00
2019-02-02T04:54:31.232Z,100.00
2019-02-02T04:56:57.073Z,100.00
2019-02-02T04:59:29.369Z,100.00
2019-02-02T05:01:53.705Z,100.00
2019-02-02T05:04:19.866Z,100.00
2019-02-02T05:06:45.961Z,100.00
2019-02-02T05:09:14.679Z,100.00
2019-02-02T05:11:40.490Z,100.00
2019-02-02T05:14:06.442Z,100.00
2019-02-02T05:16:32.263Z,100.00
2019-02-02T05:18:58.125Z,100.00
2019-02-02T05:21:27.706Z,100.00
2019-02-02T05:23:53.591Z,100.00
2019-02-02T05:26:20.470Z,100.00
2019-02-02T05:28:46.311Z,100.00
2019-02-02T05:31:15.934Z,100.00
2019-02-02T05:33:41.782Z,100.00
2019-02-02T05:36:10.658Z,100.00
2019-02-02T05:38:36.771Z,100.00
2019-02-02T05:41:05.843Z,100.00
2019-02-02T05:43:31.675Z,100.00
2019-02-02T05:46:00.505Z,100.00
2019-02-02T05:48:26.351Z,100.00
2019-02-02T05:50:52.180Z,100.00
2019-02-02T05:53:18.113Z,100.00
2019-02-02T05:55:43.945Z,100.00
2019-02-02T05:58:13.151Z,100.00
2019-02-02T06:00:40.914Z,100.00
2019-02-02T06:03:06.746Z,100.00
2019-02-02T06:05:32.663Z,100.00
2019-02-02T06:08:01.883Z,100.00
2019-02-02T06:10:27.975Z,100.00
2019-02-02T06:12:56.681Z,100.00
2019-02-02T06:15:22.909Z,100.00
2019-02-02T06:17:51.904Z,100.00
2019-02-02T06:20:17.749Z,100.00
2019-02-02T06:22:45.437Z,100.00
2019-02-02T06:25:13.365Z,100.00
2019-02-02T06:27:39.185Z,100.00
2019-02-02T06:30:14.187Z,100.00
2019-02-02T06:32:39.985Z,100.00
2019-02-02T06:35:08.642Z,100.00
2019-02-02T06:37:34.450Z,100.00
2019-02-02T06:40:00.573Z,100.00
2019-02-02T06:42:26.379Z,100.00
2019-02-02T06:44:52.229Z,100.00
2019-02-02T06:47:18.044Z,100.00
2019-02-02T06:49:43.976Z,100.00
2019-02-02T06:52:09.885Z,100.00
2019-02-02T06:54:36.087Z,100.00
2019-02-02T06:57:01.881Z,100.00
2019-02-02T06:59:30.485Z,99.55
2019-02-02T07:01:56.607Z,99.19
2019-02-02T07:04:22.738Z,98.75
2019-02-02T07:06:48.636Z,98.38
2019-02-02T07:09:14.502Z,98.38
2019-02-02T07:11:43.355Z,98.37
2019-02-02T07:14:09.441Z,98.08
2019-02-02T07:16:38.314Z,97.83
2019-02-02T07:19:04.439Z,97.55
2019-02-02T07:21:31.710Z,97.39
2019-02-02T07:23:57.833Z,97.23
2019-02-02T07:26:26.653Z,97.55
2019-02-02T07:28:52.476Z,97.45
2019-02-02T07:31:21.404Z,97.32
2019-02-02T07:33:47.225Z,96.78
2019-02-02T07:36:16.809Z,96.74
2019-02-02T07:38:42.947Z,96.23
2019-02-02T07:41:08.769Z,96.76
2019-02-02T07:43:34.700Z,96.70
2019-02-02T07:46:00.541Z,96.65
2019-02-02T07:48:29.819Z,96.65
2019-02-02T07:50:55.910Z,96.29
2019-02-02T07:53:24.805Z,96.31
2019-02-02T07:55:50.881Z,96.78
2019-02-02T07:58:16.936Z,97.38
2019-02-02T08:00:42.772Z,97.08
2019-02-02T08:03:13.539Z,96.93
2019-02-02T08:05:39.366Z,96.53
2019-02-02T08:08:08.245Z,95.86
2019-02-02T08:10:34.054Z,95.29
2019-02-02T08:13:03.644Z,94.79
2019-02-02T08:15:31.533Z,93.63
2019-02-02T08:17:57.370Z,92.95
2019-02-02T08:20:23.554Z,93.54
2019-02-02T08:22:49.486Z,91.81
2019-02-02T08:25:15.444Z,84.33
2019-02-02T08:27:41.761Z,76.10
2019-02-02T08:30:29.345Z,76.10
2019-02-02T08:32:55.203Z,75.14
2019-02-02T08:35:21.435Z,73.05
2019-02-02T08:37:47.664Z,70.60
2019-02-02T08:40:15.600Z,68.33
2019-02-02T08:42:41.737Z,64.01
2019-02-02T08:45:09.017Z,62.75
2019-02-02T08:47:34.879Z,62.75
2019-02-02T08:50:00.695Z,66.51
2019-02-02T08:52:26.557Z,65.01
2019-02-02T08:54:52.613Z,61.36
2019-02-02T08:57:18.710Z,59.47
2019-02-02T08:59:44.546Z,57.88
2019-02-02T09:02:10.490Z,56.15
2019-02-02T09:04:36.401Z,54.28
2019-02-02T09:07:02.265Z,52.60
2019-02-02T09:09:28.400Z,49.86
2019-02-02T09:11:54.507Z,45.59
2019-02-02T09:14:20.329Z,44.85
2019-02-02T09:16:46.166Z,43.14
2019-02-02T09:19:12.286Z,43.25
2019-02-02T09:21:38.570Z,44.38
2019-02-02T09:24:04.361Z,45.24
2019-02-02T09:26:31.455Z,44.85
2019-02-02T09:28:57.550Z,44.20
2019-02-02T09:31:23.397Z,46.62
2019-02-02T09:33:49.214Z,49.06
2019-02-02T09:36:16.930Z,46.36
2019-02-02T09:38:45.710Z,47.36
2019-02-02T09:41:11.544Z,53.75
2019-02-02T09:43:40.707Z,53.75
2019-02-02T09:46:06.517Z,55.11
2019-02-02T09:48:35.372Z,54.42
2019-02-02T09:51:01.189Z,52.86
2019-02-02T09:53:29.988Z,52.44
2019-02-02T09:55:56.175Z,47.56
2019-02-02T09:58:22.012Z,43.98
2019-02-02T10:00:47.875Z,43.98
2019-02-02T10:03:16.989Z,45.91
2019-02-02T10:05:42.825Z,46.68
2019-02-02T10:08:12.514Z,49.82
2019-02-02T10:10:38.422Z,49.78
2019-02-02T10:13:04.673Z,48.93
2019-02-02T10:15:30.514Z,49.18
2019-02-02T10:17:56.449Z,48.63
2019-02-02T10:20:28.225Z,48.95
2019-02-02T10:22:54.857Z,48.54
2019-02-02T10:25:23.741Z,47.71
2019-02-02T10:27:49.644Z,48.82
2019-02-02T10:30:28.072Z,46.29
2019-02-02T10:32:54.249Z,45.90
2019-02-02T10:35:20.101Z,45.20
2019-02-02T10:37:45.944Z,49.74
2019-02-02T10:40:13.438Z,55.53
2019-02-02T10:42:39.348Z,58.74
2019-02-02T10:45:08.744Z,63.70
2019-02-02T10:47:34.621Z,67.36
2019-02-02T10:50:00.867Z,68.74
2019-02-02T10:52:27.050Z,69.33
2019-02-02T10:54:53.166Z,69.48
2019-02-02T10:57:19.281Z,68.49
2019-02-02T10:59:45.094Z,67.01
2019-02-02T11:02:11.225Z,68.90
2019-02-02T11:04:37.111Z,67.82
2019-02-02T11:07:03.376Z,68.32
2019-02-02T11:09:29.161Z,68.25
2019-02-02T11:11:55.047Z,67.27
2019-02-02T11:14:20.886Z,68.94
2019-02-02T11:16:49.699Z,68.42
2019-02-02T11:19:15.987Z,67.99
2019-02-02T11:21:42.357Z,68.76
2019-02-02T11:24:08.623Z,69.02
2019-02-02T11:26:34.811Z,69.21
2019-02-02T11:29:00.945Z,69.58
2019-02-02T11:31:26.739Z,71.11
2019-02-02T11:33:53.794Z,72.69
2019-02-02T11:36:19.649Z,72.79
2019-02-02T11:38:51.085Z,72.52
2019-02-02T11:41:16.920Z,70.79
2019-02-02T11:43:45.782Z,70.38
2019-02-02T11:46:11.650Z,69.13
2019-02-02T11:48:40.476Z,70.09
2019-02-02T11:51:06.331Z,70.48
2019-02-02T11:53:37.357Z,71.92
2019-02-02T11:56:03.240Z,71.94
2019-02-02T11:58:29.360Z,71.66
2019-02-02T12:00:55.214Z,71.39
2019-02-02T12:03:21.039Z,71.02
2019-02-02T12:05:46.888Z,71.65
2019-02-02T12:08:13.616Z,71.98
2019-02-02T12:10:39.451Z,71.28
2019-02-02T12:13:05.286Z,71.00
2019-02-02T12:15:36.160Z,69.68
2019-02-02T12:18:02.197Z,69.90
2019-02-02T12:20:33.357Z,69.13
2019-02-02T12:22:59.049Z,67.38
2019-02-02T12:25:25.247Z,67.12
2019-02-02T12:27:51.385Z,68.11
2019-02-02T12:30:46.176Z,68.43
2019-02-02T12:33:12.084Z,67.95
2019-02-02T12:35:37.916Z,65.42
2019-02-02T12:38:04.127Z,64.64
2019-02-02T12:40:29.965Z,63.88
2019-02-02T12:42:55.791Z,62.75
2019-02-02T12:45:25.061Z,63.65
2019-02-02T12:47:50.992Z,66.10
2019-02-02T12:50:17.166Z,63.95
2019-02-02T12:52:43.293Z,64.33
2019-02-02T12:55:10.243Z,64.82
2019-02-02T12:57:36.335Z,65.25
2019-02-02T13:00:11.786Z,66.19
2019-02-02T13:02:38.574Z,66.30
2019-02-02T13:05:06.461Z,67.27
2019-02-02T13:07:32.611Z,68.31
2019-02-02T13:09:58.425Z,69.20
2019-02-02T13:12:24.546Z,70.10
2019-02-02T13:14:50.668Z,71.15
2019-02-02T13:17:16.499Z,71.54
2019-02-02T13:19:42.352Z,72.30
2019-02-02T13:22:08.351Z,72.93
2019-02-02T13:24:34.425Z,73.45
2019-02-02T13:27:00.273Z,74.03
2019-02-02T13:29:26.114Z,75.10
2019-02-02T13:31:52.415Z,76.07
2019-02-02T13:34:18.268Z,77.22
2019-02-02T13:36:44.192Z,77.91
2019-02-02T13:39:10.323Z,78.32
2019-02-02T13:41:36.174Z,78.01
2019-02-02T13:44:02.393Z,78.89
2019-02-02T13:46:28.622Z,78.91
2019-02-02T13:48:54.470Z,79.20
2019-02-02T13:51:20.286Z,80.20
2019-02-02T13:53:46.089Z,80.86
2019-02-02T13:56:11.917Z,80.64
2019-02-02T13:58:37.988Z,80.66
2019-02-02T14:01:03.814Z,81.72
2019-02-02T14:03:30.061Z,81.52
2019-02-02T14:05:55.877Z,81.73
2019-02-02T14:08:21.730Z,81.67
2019-02-02T14:10:47.653Z,81.25
2019-02-02T14:13:13.748Z,81.83
2019-02-02T14:15:39.743Z,82.34
2019-02-02T14:18:05.980Z,83.23
2019-02-02T14:20:34.853Z,83.38
2019-02-02T14:23:00.669Z,83.57
2019-02-02T14:25:26.747Z,83.96
2019-02-02T14:27:52.612Z,84.00
2019-02-02T14:30:20.580Z,83.41
2019-02-02T14:32:46.524Z,83.92
2019-02-02T14:35:14.627Z,83.95
2019-02-02T14:37:40.689Z,84.58
2019-02-02T14:40:11.817Z,84.68
2019-02-02T14:42:37.914Z,84.76
2019-02-02T14:45:07.324Z,84.62
2019-02-02T14:47:33.167Z,85.00
2019-02-02T14:49:58.969Z,85.22
2019-02-02T14:52:25.074Z,84.42
2019-02-02T14:54:51.038Z,84.81
2019-02-02T14:57:20.136Z,84.68
2019-02-02T14:59:46.226Z,85.38
2019-02-02T15:02:12.085Z,85.58
2019-02-02T15:04:37.953Z,85.57
2019-02-02T15:07:03.783Z,85.80
2019-02-02T15:09:32.701Z,85.49
2019-02-02T15:11:58.517Z,85.87
2019-02-02T15:14:26.014Z,86.04
2019-02-02T15:16:51.842Z,85.89
2019-02-02T15:19:22.546Z,85.75
2019-02-02T15:21:48.387Z,86.51
2019-02-02T15:24:17.332Z,87.02
2019-02-02T15:26:43.301Z,86.95
2019-02-02T15:29:12.234Z,87.06
2019-02-02T15:31:38.065Z,86.93
2019-02-02T15:34:07.153Z,86.74
2019-02-02T15:36:32.981Z,87.21
2019-02-02T15:38:58.825Z,87.40
2019-02-02T15:41:24.902Z,86.94
2019-02-02T15:43:51.007Z,87.60
2019-02-02T15:46:16.837Z,87.48
2019-02-02T15:48:42.742Z,87.20
2019-02-02T15:51:11.395Z,87.52
2019-02-02T15:53:37.505Z,87.33
2019-02-02T15:56:06.355Z,87.90
2019-02-02T15:58:32.199Z,88.22
2019-02-02T16:01:01.570Z,88.07
2019-02-02T16:03:27.497Z,87.39
2019-02-02T16:05:56.093Z,87.39
2019-02-02T16:08:21.931Z,87.57
2019-02-02T16:10:51.000Z,87.55
2019-02-02T16:13:16.814Z,87.55
2019-02-02T16:15:42.637Z,87.56
2019-02-02T16:18:08.692Z,87.94
2019-02-02T16:20:36.747Z,88.36
2019-02-02T16:23:03.402Z,88.72
2019-02-02T16:25:29.474Z,88.88
2019-02-02T16:27:58.113Z,88.46
2019-02-02T16:30:29.912Z,88.90
2019-02-02T16:32:55.810Z,88.56
2019-02-02T16:35:22.028Z,88.64
2019-02-02T16:37:48.164Z,88.89
2019-02-02T16:40:27.062Z,89.44
2019-02-02T16:42:53.871Z,89.96
2019-02-02T16:45:23.012Z,89.55
2019-02-02T16:47:49.136Z,89.48
2019-02-02T16:50:16.796Z,88.90
2019-02-02T16:52:43.529Z,89.51
2019-02-02T16:55:11.851Z,90.01
2019-02-02T16:57:37.672Z,90.49
2019-02-02T17:00:07.316Z,90.36
2019-02-02T17:02:33.135Z,90.63
2019-02-02T17:04:58.950Z,90.78
2019-02-02T17:07:24.776Z,90.69
2019-02-02T17:09:50.613Z,90.72
2019-02-02T17:12:16.700Z,90.93
2019-02-02T17:14:42.658Z,91.18
2019-02-02T17:17:08.778Z,91.26
2019-02-02T17:19:34.602Z,91.40
2019-02-02T17:22:00.443Z,91.11
2019-02-02T17:24:26.276Z,91.26
2019-02-02T17:26:52.114Z,91.86
2019-02-02T17:29:17.956Z,92.28
2019-02-02T17:31:44.061Z,92.17
2019-02-02T17:34:09.903Z,92.36
2019-02-02T17:36:35.738Z,92.03
2019-02-02T17:39:01.578Z,91.98
2019-02-02T17:41:27.395Z,92.55
2019-02-02T17:43:53.228Z,92.84
2019-02-02T17:46:23.896Z,92.66
2019-02-02T17:48:49.723Z,92.52
2019-02-02T17:51:18.406Z,92.15
2019-02-02T17:53:44.507Z,91.84
2019-02-02T17:56:13.398Z,92.14
2019-02-02T17:58:40.083Z,92.48
2019-02-02T18:01:06.231Z,92.57
2019-02-02T18:03:32.033Z,92.33
2019-02-02T18:05:58.125Z,92.16
2019-02-02T18:08:23.918Z,92.23
2019-02-02T18:10:49.748Z,92.96
2019-02-02T18:13:18.895Z,93.20
2019-02-02T18:15:44.719Z,93.31
2019-02-02T18:18:12.642Z,92.77
2019-02-02T18:20:38.465Z,92.67
2019-02-02T18:23:07.478Z,92.77
2019-02-02T18:25:33.595Z,93.08
2019-02-02T18:28:03.043Z,93.24
2019-02-02T18:30:28.972Z,93.62
2019-02-02T18:32:56.265Z,94.17
2019-02-02T18:35:23.186Z,94.74
2019-02-02T18:37:51.815Z,94.62
2019-02-02T18:40:22.889Z,94.57
2019-02-02T18:42:48.941Z,93.75
2019-02-02T18:45:20.068Z,93.74
2019-02-02T18:47:45.921Z,94.28
2019-02-02T18:50:13.836Z,94.22
2019-02-02T18:52:39.750Z,94.02
2019-02-02T18:55:09.401Z,94.14
2019-02-02T18:57:35.213Z,93.54
2019-02-02T19:00:01.322Z,92.45
2019-02-02T19:02:27.510Z,92.33
2019-02-02T19:05:03.453Z,92.47
2019-02-02T19:07:21.359Z,92.83
2019-02-02T19:09:47.212Z,92.57
2019-02-02T19:12:13.044Z,93.24
2019-02-02T19:14:38.886Z,93.71
2019-02-02T19:17:04.709Z,94.20
2019-02-02T19:19:30.853Z,94.42
2019-02-02T19:21:56.705Z,94.40
2019-02-02T19:24:22.548Z,93.97
2019-02-02T19:26:48.641Z,94.11
2019-02-02T19:29:14.477Z,94.07
2019-02-02T19:31:43.359Z,94.26
2019-02-02T19:34:09.460Z,94.57
2019-02-02T19:36:38.654Z,94.31
2019-02-02T19:39:05.837Z,93.96
2019-02-02T19:41:34.754Z,93.76
2019-02-02T19:44:00.583Z,93.71
2019-02-02T19:46:29.513Z,93.30
2019-02-02T19:48:55.616Z,92.88
2019-02-02T19:51:24.421Z,93.13
2019-02-02T19:53:50.532Z,92.77
2019-02-02T19:56:16.340Z,93.09
2019-02-02T19:58:42.143Z,92.60
2019-02-02T20:01:07.991Z,90.97
2019-02-02T20:03:33.821Z,90.83
2019-02-02T20:05:59.969Z,91.43
2019-02-02T20:08:29.215Z,93.12
2019-02-02T20:10:55.140Z,93.53
2019-02-02T20:13:24.000Z,93.47
2019-02-02T20:15:49.844Z,93.87
2019-02-02T20:18:18.782Z,94.17
2019-02-02T20:20:44.898Z,94.27
2019-02-02T20:23:13.765Z,94.05
2019-02-02T20:25:39.948Z,94.02
2019-02-02T20:28:07.627Z,93.92
2019-02-02T20:30:33.607Z,93.76
2019-02-02T20:32:59.810Z,93.27
2019-02-02T20:35:26.119Z,92.85
2019-02-02T20:37:52.453Z,92.89
2019-02-02T20:40:23.321Z,93.27
2019-02-02T20:42:49.435Z,93.56
2019-02-02T20:45:22.360Z,93.46
2019-02-02T20:47:48.190Z,93.22
2019-02-02T20:50:17.774Z,92.59
2019-02-02T20:52:47.709Z,92.72
2019-02-02T20:55:33.555Z,93.62
2019-02-02T20:57:59.432Z,93.58
2019-02-02T21:00:27.237Z,93.87
2019-02-02T21:02:53.137Z,93.52
2019-02-02T21:05:18.948Z,93.78
2019-02-02T21:07:45.030Z,93.20
2019-02-02T21:10:17.088Z,93.75
2019-02-02T21:12:43.133Z,93.75
2019-02-02T21:15:10.865Z,93.54
2019-02-02T21:17:36.710Z,93.81
2019-02-02T21:20:08.922Z,93.38
2019-02-02T21:22:35.570Z,93.26
2019-02-02T21:25:02.076Z,93.17
2019-02-02T21:27:28.189Z,93.34
2019-02-02T21:29:53.993Z,93.50
2019-02-02T21:32:19.814Z,93.64
2019-02-02T21:34:45.617Z,93.79
2019-02-02T21:37:11.442Z,93.94
2019-02-02T21:39:37.256Z,93.66
2019-02-02T21:42:03.206Z,93.21
2019-02-02T21:44:29.040Z,93.16
2019-02-02T21:46:54.943Z,93.17
2019-02-02T21:49:20.759Z,93.67
2019-02-02T21:51:46.837Z,94.03
2019-02-02T21:54:12.679Z,93.86
2019-02-02T21:56:38.501Z,93.25
2019-02-02T21:59:04.613Z,92.90
2019-02-02T22:01:31.036Z,93.42
2019-02-02T22:03:56.904Z,94.09
2019-02-02T22:06:22.740Z,94.42
2019-02-02T22:08:48.825Z,94.44
2019-02-02T22:11:14.629Z,94.33
2019-02-02T22:13:40.465Z,93.94
2019-02-02T22:16:06.561Z,94.15
2019-02-02T22:18:34.206Z,93.85
2019-02-02T22:21:00.230Z,93.58
2019-02-02T22:23:28.341Z,93.52
2019-02-02T22:25:54.571Z,93.87
2019-02-02T22:28:22.677Z,94.20
2019-02-02T22:30:49.130Z,94.24
2019-02-02T22:33:15.226Z,94.46
2019-02-02T22:35:41.061Z,94.63
2019-02-02T22:38:06.994Z,94.69
2019-02-02T22:40:33.209Z,94.33
2019-02-02T22:42:59.004Z,94.17
2019-02-02T22:45:24.858Z,93.95
2019-02-02T22:47:50.704Z,94.25
2019-02-02T22:50:18.350Z,94.21
2019-02-02T22:52:44.550Z,94.25
2019-02-02T22:55:13.017Z,94.40
2019-02-02T22:57:39.111Z,94.43
2019-02-02T23:00:17.306Z,93.99
2019-02-02T23:02:43.269Z,93.99
2019-02-02T23:05:16.323Z,93.68
2019-02-02T23:07:46.004Z,93.66
2019-02-02T23:10:26.631Z,93.47
2019-02-02T23:12:56.279Z,93.54
2019-02-02T23:15:43.335Z,93.76
2019-02-02T23:18:09.432Z,93.62
2019-02-02T23:20:35.285Z,93.19
2019-02-02T23:23:01.459Z,93.61
2019-02-02T23:25:27.563Z,94.19
2019-02-02T23:27:53.803Z,94.23
2019-02-02T23:30:19.606Z,93.91
2019-02-02T23:32:45.431Z,93.84
2019-02-02T23:35:11.722Z,93.41
2019-02-02T23:37:37.937Z,93.69
2019-02-02T23:40:10.424Z,93.95
2019-02-02T23:42:36.552Z,94.56
2019-02-02T23:45:05.587Z,94.82
2019-02-02T23:47:31.438Z,95.14
2019-02-02T23:49:57.288Z,95.12
2019-02-02T23:52:23.084Z,95.45
2019-02-02T23:54:48.955Z,95.80
2019-02-02T23:57:14.870Z,96.23
2019-02-02T23:59:41.005Z,96.17
